Time;durP1;ratioP1;P1;durP2;ratioP2;P2;SDS_P1;SDS_P2;PMS_P1;PMS_P2;Temp;Humidity;BMP_temperature;BMP_pressure;BME280_temperature;BME280_humidity;BME280_pressure;Samples;Min_cycle;Max_cycle;Signal;HPM_P1;HPM_P2
2021/12/31 00:00:39;;;;;;;1.37;0.60;;;14.00;99.90;;;;;;5059323;28;21025;-81
2021/12/31 00:03:08;;;;;;;0.70;0.70;;;14.00;99.90;;;;;;5058270;28;20465;-81
2021/12/31 00:05:36;;;;;;;0.70;0.70;;;13.90;1.00;;;;;;5058920;28;20929;-80
2021/12/31 00:08:05;;;;;;;0.77;0.77;;;14.00;1.00;;;;;;5057870;28;20460;-82
2021/12/31 00:10:33;;;;;;;0.63;0.63;;;14.00;1.00;;;;;;5050253;28;20826;-81
2021/12/31 00:13:02;;;;;;;0.70;0.70;;;13.90;99.90;;;;;;5045657;28;20474;-81
2021/12/31 00:15:32;;;;;;;0.60;0.60;;;13.90;99.90;;;;;;5044766;28;20468;-84
2021/12/31 00:18:00;;;;;;;1.37;0.80;;;14.00;99.90;;;;;;5050784;28;20467;-81
2021/12/31 00:20:29;;;;;;;2.63;0.80;;;14.00;99.90;;;;;;5065810;28;20484;-83
2021/12/31 00:23:05;;;;;;;0.80;0.70;;;14.00;99.90;;;;;;5079306;28;21053;-83
2021/12/31 00:25:35;;;;;;;1.57;0.70;;;14.00;99.90;;;;;;5055604;28;21026;-83
2021/12/31 00:28:04;;;;;;;0.73;0.73;;;14.00;99.90;;;;;;5061153;28;20458;-81
2021/12/31 00:30:34;;;;;;;0.93;0.70;;;13.90;99.90;;;;;;5044726;28;20496;-82
2021/12/31 00:33:03;;;;;;;0.60;0.60;;;14.00;99.90;;;;;;5045036;28;20541;-81
2021/12/31 00:35:33;;;;;;;0.80;0.80;;;14.00;1.00;;;;;;5060811;28;20460;-81
2021/12/31 00:38:02;;;;;;;0.70;0.70;;;14.00;1.00;;;;;;5064324;28;20460;-82
2021/12/31 00:40:31;;;;;;;1.70;0.90;;;14.20;99.90;;;;;;5062284;28;20935;-82
2021/12/31 00:42:59;;;;;;;0.93;0.70;;;14.30;99.90;;;;;;5058059;28;20486;-82
2021/12/31 00:45:27;;;;;;;0.70;0.70;;;14.20;99.90;;;;;;5049209;28;20691;-81
2021/12/31 00:47:57;;;;;;;4.07;0.90;;;14.00;99.90;;;;;;5055017;28;20461;-80
2021/12/31 00:50:26;;;;;;;1.20;0.60;;;14.10;99.90;;;;;;5044819;28;20542;-82
2021/12/31 00:52:54;;;;;;;0.80;0.80;;;14.30;99.90;;;;;;5044210;28;20477;-82
2021/12/31 00:55:22;;;;;;;0.67;0.60;;;14.20;99.90;;;;;;5047166;28;20534;-82
2021/12/31 00:57:51;;;;;;;0.63;0.60;;;14.10;99.90;;;;;;5058913;28;20495;-81
2021/12/31 01:00:19;;;;;;;0.80;0.57;;;14.00;99.90;;;;;;5047464;28;20498;-81
2021/12/31 01:02:48;;;;;;;0.97;0.80;;;14.20;99.90;;;;;;5044213;28;20472;-81
2021/12/31 01:05:17;;;;;;;0.93;0.70;;;14.00;99.90;;;;;;5044502;28;20484;-81
2021/12/31 01:07:46;;;;;;;0.67;0.67;;;13.90;99.90;;;;;;5044141;28;20986;-82
2021/12/31 01:10:16;;;;;;;0.60;0.60;;;13.80;99.90;;;;;;5044322;28;21030;-82
2021/12/31 01:12:45;;;;;;;0.80;0.80;;;13.80;99.90;;;;;;5054538;28;20484;-82
2021/12/31 01:15:21;;;;;;;3.40;0.90;;;13.50;94.40;;;;;;5046781;28;20967;-81
2021/12/31 01:18:14;;;;;;;2.10;0.60;;;13.50;1.00;;;;;;5043428;28;20459;-81
2021/12/31 01:20:43;;;;;;;0.70;0.70;;;13.60;1.00;;;;;;5052890;28;20462;-81
2021/12/31 01:23:11;;;;;;;5.10;0.80;;;13.60;1.00;;;;;;5064228;28;20464;-81
2021/12/31 01:25:40;;;;;;;0.80;0.70;;;13.60;99.90;;;;;;5065587;28;20699;-81
2021/12/31 01:28:08;;;;;;;0.80;0.67;;;13.70;99.90;;;;;;5065087;28;20467;-80
2021/12/31 01:30:36;;;;;;;0.73;0.73;;;14.00;97.00;;;;;;5051644;28;20501;-81
2021/12/31 01:33:06;;;;;;;0.87;0.70;;;13.80;31.70;;;;;;5056791;28;20483;-80
2021/12/31 01:35:34;;;;;;;1.20;0.90;;;13.50;99.90;;;;;;5064922;28;20456;-81
2021/12/31 01:38:04;;;;;;;1.20;0.70;;;13.30;1.00;;;;;;5051122;28;20490;-81
2021/12/31 01:40:33;;;;;;;0.97;0.70;;;13.30;1.00;;;;;;5063585;28;20464;-83
2021/12/31 01:43:01;;;;;;;0.63;0.60;;;13.50;99.90;;;;;;5065103;28;20488;-81
2021/12/31 01:45:31;;;;;;;2.80;0.87;;;13.60;99.90;;;;;;5057131;28;20473;-81
2021/12/31 01:48:21;;;;;;;1.70;0.87;;;13.70;14.50;;;;;;5044514;28;20499;-82
2021/12/31 01:50:49;;;;;;;1.80;0.90;;;13.80;1.00;;;;;;5045410;28;20445;-81
2021/12/31 01:53:19;;;;;;;0.80;0.80;;;13.90;1.00;;;;;;5048881;28;20473;-83
2021/12/31 01:55:47;;;;;;;0.67;0.67;;;13.90;1.00;;;;;;5063336;28;20466;-81
2021/12/31 01:58:19;;;;;;;0.73;0.73;;;13.90;99.90;;;;;;5051999;28;20467;-81
2021/12/31 02:00:48;;;;;;;0.60;0.60;;;14.00;99.90;;;;;;5051445;28;20974;-81
2021/12/31 02:03:19;;;;;;;0.80;0.60;;;14.00;99.90;;;;;;5051613;28;20512;-82
2021/12/31 02:05:48;;;;;;;0.80;0.70;;;14.00;99.90;;;;;;5045076;28;20481;-81
2021/12/31 02:08:18;;;;;;;1.50;0.83;;;14.00;99.90;;;;;;5060836;28;20465;-81
2021/12/31 02:10:50;;;;;;;1.67;0.73;;;14.10;99.90;;;;;;5064841;28;20462;-80
2021/12/31 02:13:18;;;;;;;1.80;0.60;;;13.90;99.90;;;;;;5050544;28;20679;-80
2021/12/31 02:15:47;;;;;;;0.73;0.70;;;13.90;99.90;;;;;;5044125;28;20483;-80
2021/12/31 02:18:15;;;;;;;0.67;0.67;;;13.70;99.90;;;;;;5045096;28;20479;-83
2021/12/31 02:20:47;;;;;;;0.80;0.80;;;13.60;99.90;;;;;;5045101;28;20450;-81
2021/12/31 02:23:16;;;;;;;1.00;0.77;;;13.70;99.90;;;;;;5048358;28;21029;-80
2021/12/31 02:25:44;;;;;;;1.17;0.70;;;13.60;1.00;;;;;;5056165;28;20483;-83
2021/12/31 02:28:13;;;;;;;0.60;0.60;;;13.70;1.00;;;;;;5045911;28;20519;-81
2021/12/31 02:30:41;;;;;;;0.90;0.90;;;13.80;99.90;;;;;;5043258;28;20944;-81
2021/12/31 02:33:09;;;;;;;0.70;0.70;;;13.70;99.90;;;;;;5045230;28;20704;-81
2021/12/31 02:35:38;;;;;;;1.20;0.70;;;13.80;99.90;;;;;;5044523;28;20564;-80
2021/12/31 02:38:09;;;;;;;0.70;0.63;;;13.90;99.90;;;;;;5044627;28;20459;-81
2021/12/31 02:40:39;;;;;;;0.80;0.60;;;14.00;99.90;;;;;;5044863;28;20456;-80
2021/12/31 02:43:07;;;;;;;1.47;0.93;;;13.90;99.90;;;;;;5044628;28;20479;-82
2021/12/31 02:45:37;;;;;;;1.30;1.20;;;13.60;99.90;;;;;;5044930;28;20575;-82
2021/12/31 02:48:06;;;;;;;0.80;0.80;;;13.50;99.90;;;;;;5044282;28;20475;-80
2021/12/31 02:50:39;;;;;;;1.67;0.70;;;13.60;99.90;;;;;;5044945;28;20464;-82
2021/12/31 02:53:11;;;;;;;0.60;0.60;;;13.60;99.90;;;;;;5044730;28;20514;-82
2021/12/31 02:55:40;;;;;;;0.60;0.60;;;13.70;99.90;;;;;;5055387;28;20448;-81
2021/12/31 02:58:09;;;;;;;0.60;0.60;;;13.60;99.90;;;;;;5045732;28;20453;-81
2021/12/31 03:00:41;;;;;;;0.73;0.70;;;13.70;99.90;;;;;;5044968;28;20456;-83
2021/12/31 03:03:10;;;;;;;0.70;0.70;;;13.50;99.90;;;;;;5048492;28;20566;-81
2021/12/31 03:05:41;;;;;;;0.87;0.60;;;13.60;99.90;;;;;;5048569;28;20548;-82
2021/12/31 03:08:12;;;;;;;0.90;0.60;;;13.70;99.90;;;;;;5048245;28;20840;-81
2021/12/31 03:10:42;;;;;;;0.80;0.80;;;13.80;99.90;;;;;;5055245;28;20482;-82
2021/12/31 03:13:10;;;;;;;1.17;0.83;;;13.80;99.90;;;;;;5055177;28;20577;-81
2021/12/31 03:15:40;;;;;;;2.50;0.83;;;13.80;99.90;;;;;;5048954;28;21119;-81
2021/12/31 03:18:10;;;;;;;3.30;0.80;;;13.80;99.90;;;;;;5046475;28;21044;-82
2021/12/31 03:20:42;;;;;;;1.23;0.70;;;13.90;99.90;;;;;;5055728;28;21001;-81
2021/12/31 03:23:11;;;;;;;1.50;0.53;;;13.90;99.90;;;;;;5054362;28;20480;-81
2021/12/31 03:25:40;;;;;;;1.93;0.80;;;13.90;99.90;;;;;;5048231;28;20963;-82
2021/12/31 03:28:08;;;;;;;1.67;0.90;;;13.90;99.90;;;;;;5060097;28;21004;-81
2021/12/31 03:30:36;;;;;;;1.50;0.50;;;13.90;77.40;;;;;;5048145;28;20466;-80
2021/12/31 03:33:04;;;;;;;0.57;0.57;;;13.90;86.30;;;;;;5046651;28;20472;-82
2021/12/31 03:35:33;;;;;;;0.70;0.60;;;13.90;77.40;;;;;;5048869;28;20463;-81
2021/12/31 03:38:01;;;;;;;0.63;0.63;;;13.90;41.80;;;;;;5048060;28;20473;-81
2021/12/31 03:40:30;;;;;;;1.10;1.00;;;13.80;40.60;;;;;;5048538;28;20452;-81
2021/12/31 03:42:59;;;;;;;0.70;0.70;;;13.80;5.80;;;;;;5046916;28;20491;-80
2021/12/31 03:45:27;;;;;;;1.03;0.70;;;13.80;1.00;;;;;;5048280;28;20474;-81
2021/12/31 03:47:56;;;;;;;0.80;0.77;;;13.70;1.00;;;;;;5047542;28;20561;-81
2021/12/31 03:50:24;;;;;;;0.60;0.60;;;13.70;1.00;;;;;;5057034;28;20453;-81
2021/12/31 03:52:52;;;;;;;1.63;0.70;;;13.60;1.00;;;;;;5046194;28;20499;-81
2021/12/31 03:55:21;;;;;;;0.77;0.70;;;13.20;1.00;;;;;;5047950;28;20521;-81
2021/12/31 03:57:51;;;;;;;0.70;0.70;;;13.50;1.00;;;;;;5047215;28;20457;-80
2021/12/31 04:00:20;;;;;;;0.70;0.60;;;13.50;1.00;;;;;;5047754;28;21032;-81
2021/12/31 04:02:48;;;;;;;1.10;0.70;;;13.40;1.00;;;;;;5047720;28;20497;-80
2021/12/31 04:05:16;;;;;;;1.00;0.70;;;13.40;1.00;;;;;;5047119;28;20444;-81
2021/12/31 04:07:45;;;;;;;0.67;0.67;;;13.40;1.00;;;;;;5046216;28;20537;-80
2021/12/31 04:10:13;;;;;;;1.53;0.70;;;13.40;1.00;;;;;;5047524;28;20505;-82
2021/12/31 04:12:41;;;;;;;2.93;0.70;;;13.40;1.00;;;;;;5064088;28;20470;-79
2021/12/31 04:15:11;;;;;;;0.70;0.70;;;13.40;1.00;;;;;;5067023;28;20454;-81
2021/12/31 04:17:40;;;;;;;0.80;0.70;;;13.40;1.00;;;;;;5063980;28;20456;-82
2021/12/31 04:20:18;;;;;;;0.80;0.80;;;13.30;1.00;;;;;;5045804;28;20463;-81
2021/12/31 04:22:52;;;;;;;4.07;1.17;;;13.20;1.00;;;;;;5046871;28;20506;-82
2021/12/31 04:25:21;;;;;;;9.20;2.80;;;13.20;1.00;;;;;;5043494;28;20463;-81
2021/12/31 04:27:51;;;;;;;2.50;1.57;;;13.20;1.00;;;;;;5052645;28;20477;-82
2021/12/31 04:30:20;;;;;;;2.67;0.80;;;13.20;1.00;;;;;;5043724;28;20456;-81
2021/12/31 04:32:49;;;;;;;1.27;1.00;;;13.20;1.00;;;;;;5045216;28;20473;-80
2021/12/31 04:35:18;;;;;;;1.40;0.70;;;13.10;1.00;;;;;;5055458;28;20455;-81
2021/12/31 04:37:47;;;;;;;0.70;0.70;;;13.10;1.00;;;;;;5044958;28;20456;-82
2021/12/31 04:40:16;;;;;;;3.27;1.00;;;13.10;1.00;;;;;;5045014;28;20459;-82
2021/12/31 04:42:46;;;;;;;0.60;0.60;;;13.10;10.30;;;;;;5043523;28;20659;-82
2021/12/31 04:45:14;;;;;;;1.43;0.70;;;13.10;8.90;;;;;;5044914;28;20988;-81
2021/12/31 04:47:44;;;;;;;0.80;0.70;;;13.10;90.80;;;;;;5044570;28;20478;-81
2021/12/31 04:50:13;;;;;;;5.13;0.63;;;13.20;28.80;;;;;;5044580;28;20457;-81
2021/12/31 04:52:41;;;;;;;0.70;0.70;;;13.10;1.00;;;;;;5044567;28;20484;-83
2021/12/31 04:55:11;;;;;;;0.77;0.77;;;13.10;1.00;;;;;;5057883;28;20454;-81
2021/12/31 04:57:40;;;;;;;0.80;0.60;;;13.10;1.00;;;;;;5046250;28;20459;-82
2021/12/31 05:00:10;;;;;;;1.50;0.70;;;13.10;1.00;;;;;;5056270;28;20468;-80
2021/12/31 05:02:38;;;;;;;1.00;0.90;;;13.10;25.60;;;;;;5044673;28;20473;-81
2021/12/31 05:05:09;;;;;;;0.80;0.70;;;13.10;81.30;;;;;;5044447;28;20455;-82
2021/12/31 05:07:37;;;;;;;0.80;0.60;;;13.10;99.90;;;;;;5043901;28;20514;-80
2021/12/31 05:10:06;;;;;;;1.10;0.77;;;13.10;99.90;;;;;;5044566;28;20467;-81
2021/12/31 05:12:37;;;;;;;0.97;0.80;;;13.10;24.80;;;;;;5059559;28;20945;-82
2021/12/31 05:15:08;;;;;;;2.00;0.77;;;13.20;26.70;;;;;;5044334;28;20456;-81
2021/12/31 05:17:37;;;;;;;0.70;0.70;;;13.10;1.00;;;;;;5044075;28;20444;-80
2021/12/31 05:20:08;;;;;;;0.70;0.70;;;13.00;1.00;;;;;;5043093;28;20772;-83
2021/12/31 05:22:36;;;;;;;0.60;0.60;;;13.00;4.10;;;;;;5061074;28;20534;-81
2021/12/31 05:25:05;;;;;;;1.03;1.00;;;13.00;99.90;;;;;;5053324;28;20531;-82
2021/12/31 05:27:34;;;;;;;1.37;0.90;;;13.00;99.90;;;;;;5051908;28;20517;-82
2021/12/31 05:30:02;;;;;;;1.23;0.80;;;13.10;99.90;;;;;;5043874;28;20464;-82
2021/12/31 05:32:30;;;;;;;1.17;0.80;;;13.10;99.90;;;;;;5061418;28;20493;-82
2021/12/31 05:34:59;;;;;;;2.07;1.10;;;13.00;99.90;;;;;;5064579;28;20492;-81
2021/12/31 05:37:28;;;;;;;2.37;0.73;;;12.90;99.90;;;;;;5050752;28;20444;-83
2021/12/31 05:39:57;;;;;;;0.80;0.70;;;12.80;99.90;;;;;;5052713;28;20459;-82
2021/12/31 05:42:25;;;;;;;0.70;0.70;;;12.80;1.00;;;;;;5049743;28;20503;-81
2021/12/31 05:44:53;;;;;;;0.93;0.80;;;12.80;1.00;;;;;;5043537;28;20951;-82
2021/12/31 05:47:22;;;;;;;0.60;0.60;;;12.90;1.00;;;;;;5043076;28;20479;-80
2021/12/31 05:49:51;;;;;;;1.50;0.87;;;12.90;99.90;;;;;;5053091;28;20994;-81
2021/12/31 05:52:21;;;;;;;1.10;0.70;;;13.00;99.90;;;;;;5043329;28;20475;-83
2021/12/31 05:54:50;;;;;;;4.73;0.83;;;13.00;99.90;;;;;;5043296;28;21022;-81
2021/12/31 05:57:18;;;;;;;1.87;0.80;;;13.00;99.90;;;;;;5043237;28;20452;-81
2021/12/31 05:59:47;;;;;;;1.27;0.70;;;13.00;99.90;;;;;;5062238;28;20996;-81
2021/12/31 06:02:15;;;;;;;3.90;0.90;;;13.00;99.90;;;;;;5063392;28;20542;-83
2021/12/31 06:04:44;;;;;;;1.00;0.70;;;13.00;99.90;;;;;;5048533;28;20471;-81
2021/12/31 06:07:12;;;;;;;0.70;0.70;;;12.80;99.90;;;;;;5063449;28;20475;-82
2021/12/31 06:09:40;;;;;;;0.77;0.60;;;12.80;99.90;;;;;;5057569;28;20467;-82
2021/12/31 06:12:10;;;;;;;0.70;0.60;;;12.80;99.90;;;;;;5055241;28;20478;-81
2021/12/31 06:14:39;;;;;;;0.73;0.73;;;12.60;1.00;;;;;;5043617;28;21155;-81
2021/12/31 06:17:08;;;;;;;1.70;0.77;;;12.50;1.00;;;;;;5043412;28;20463;-81
2021/12/31 06:19:39;;;;;;;0.70;0.70;;;12.50;99.90;;;;;;5043256;28;20555;-82
2021/12/31 06:22:10;;;;;;;0.90;0.70;;;12.60;1.00;;;;;;5050009;28;21430;-81
2021/12/31 06:24:39;;;;;;;1.00;0.90;;;12.60;1.00;;;;;;5063156;28;20469;-81
2021/12/31 06:27:09;;;;;;;1.83;0.80;;;12.40;99.90;;;;;;5064019;28;20467;-81
2021/12/31 06:29:37;;;;;;;0.80;0.73;;;12.20;1.00;;;;;;5055646;28;20880;-81
2021/12/31 06:32:06;;;;;;;0.90;0.87;;;12.20;1.00;;;;;;5056411;28;20559;-81
2021/12/31 06:34:38;;;;;;;0.60;0.60;;;12.20;1.00;;;;;;5045103;28;21023;-80
2021/12/31 06:37:06;;;;;;;0.67;0.60;;;12.30;99.90;;;;;;5049995;28;20446;-81
2021/12/31 06:39:36;;;;;;;0.57;0.57;;;12.50;99.90;;;;;;5051918;28;20535;-81
2021/12/31 06:42:07;;;;;;;1.03;0.83;;;12.50;99.90;;;;;;5049572;28;20483;-81
2021/12/31 06:44:38;;;;;;;1.73;0.80;;;12.60;1.00;;;;;;5058178;28;20441;-80
2021/12/31 06:47:07;;;;;;;0.87;0.87;;;12.50;99.90;;;;;;5063459;28;20446;-82
2021/12/31 06:49:35;;;;;;;1.20;0.90;;;12.50;99.90;;;;;;5060278;28;20863;-81
2021/12/31 06:52:04;;;;;;;1.00;0.90;;;12.50;99.90;;;;;;5065191;28;20482;-81
2021/12/31 06:54:32;;;;;;;1.43;1.33;;;12.20;1.00;;;;;;5069698;28;20972;-81
2021/12/31 06:57:01;;;;;;;1.90;1.10;;;12.20;29.60;;;;;;5068774;28;21033;-82
2021/12/31 06:59:29;;;;;;;1.20;1.10;;;12.30;1.00;;;;;;5069239;28;20482;-81
2021/12/31 07:01:59;;;;;;;1.10;0.97;;;12.30;1.00;;;;;;5069089;28;20510;-81
2021/12/31 07:04:27;;;;;;;1.87;1.17;;;12.40;1.00;;;;;;5060533;28;20576;-81
2021/12/31 07:06:56;;;;;;;3.37;0.90;;;12.30;62.10;;;;;;5049538;28;20448;-81
2021/12/31 07:09:30;;;;;;;2.07;1.03;;;12.10;24.10;;;;;;5058091;28;20473;-81
2021/12/31 07:11:58;;;;;;;1.43;0.93;;;12.20;1.00;;;;;;5052796;28;20482;-83
2021/12/31 07:14:26;;;;;;;2.77;1.13;;;12.30;99.90;;;;;;5058063;28;20451;-82
2021/12/31 07:16:55;;;;;;;1.67;1.20;;;12.40;1.00;;;;;;5069112;28;20465;-82
2021/12/31 07:19:25;;;;;;;1.70;1.17;;;12.60;99.90;;;;;;5068888;28;20454;-81
2021/12/31 07:21:53;;;;;;;0.93;0.93;;;12.70;1.00;;;;;;5052132;28;20471;-81
2021/12/31 07:24:21;;;;;;;1.20;1.10;;;12.70;1.00;;;;;;5049598;28;20981;-81
2021/12/31 07:26:50;;;;;;;2.17;0.80;;;12.70;99.90;;;;;;5054011;28;20459;-81
2021/12/31 07:29:19;;;;;;;1.90;1.00;;;12.70;99.90;;;;;;5047271;28;20537;-81
2021/12/31 07:31:47;;;;;;;1.30;0.73;;;12.70;99.90;;;;;;5048888;28;20541;-82
2021/12/31 07:34:16;;;;;;;1.97;1.33;;;12.70;99.90;;;;;;5049005;28;20451;-81
2021/12/31 07:36:45;;;;;;;1.67;1.37;;;12.70;99.90;;;;;;5049136;28;20440;-81
2021/12/31 07:39:14;;;;;;;1.10;1.00;;;12.70;99.90;;;;;;5049354;28;20459;-81
2021/12/31 07:41:42;;;;;;;1.13;1.00;;;12.60;99.90;;;;;;5048570;28;20988;-82
2021/12/31 07:44:10;;;;;;;1.30;1.20;;;12.60;99.90;;;;;;5057503;28;20462;-83
2021/12/31 07:46:40;;;;;;;1.87;0.93;;;12.60;99.90;;;;;;5048940;28;20472;-81
2021/12/31 07:49:09;;;;;;;1.37;1.00;;;12.60;99.90;;;;;;5055707;28;20480;-81
2021/12/31 07:51:37;;;;;;;1.63;1.00;;;12.60;99.90;;;;;;5048963;28;20479;-81
2021/12/31 07:54:06;;;;;;;1.37;1.17;;;12.60;99.90;;;;;;5049986;28;20509;-82
2021/12/31 07:56:35;;;;;;;1.83;1.13;;;12.50;99.90;;;;;;5045313;28;20466;-82
2021/12/31 07:59:03;;;;;;;1.70;1.30;;;12.60;99.90;;;;;;5045646;28;20452;-79
2021/12/31 08:01:31;;;;;;;1.27;1.17;;;12.60;99.90;;;;;;5045354;28;20487;-83
2021/12/31 08:04:00;;;;;;;2.63;1.40;;;12.60;99.90;;;;;;5043968;28;20459;-81
2021/12/31 08:06:28;;;;;;;1.60;1.37;;;12.60;99.90;;;;;;5045416;28;20483;-82
2021/12/31 08:08:57;;;;;;;1.53;1.40;;;12.50;1.00;;;;;;5044848;28;20479;-82
2021/12/31 08:11:26;;;;;;;3.03;1.70;;;12.50;69.10;;;;;;5045586;28;20447;-83
2021/12/31 08:13:55;;;;;;;1.60;1.47;;;12.60;9.60;;;;;;5045117;28;20464;-82
2021/12/31 08:16:23;;;;;;;1.80;1.57;;;12.60;15.80;;;;;;5062116;28;20466;-82
2021/12/31 08:18:51;;;;;;;1.67;1.57;;;12.70;50.20;;;;;;5055325;28;20630;-82
2021/12/31 08:21:19;;;;;;;1.70;1.60;;;12.80;20.70;;;;;;5045831;28;20452;-82
2021/12/31 08:23:48;;;;;;;2.13;1.70;;;12.90;74.40;;;;;;5043215;28;20455;-82
2021/12/31 08:26:16;;;;;;;2.63;1.67;;;12.90;95.10;;;;;;5048785;28;20466;-82
2021/12/31 08:28:46;;;;;;;3.43;1.93;;;12.90;99.90;;;;;;5055455;28;20475;-83
2021/12/31 08:31:14;;;;;;;3.23;2.27;;;13.00;99.90;;;;;;5045004;28;20548;-80
2021/12/31 08:33:42;;;;;;;4.73;2.73;;;13.20;28.90;;;;;;5045327;28;20551;-83
2021/12/31 08:36:11;;;;;;;4.50;1.80;;;13.10;67.80;;;;;;5045223;28;20495;-82
2021/12/31 08:38:39;;;;;;;4.63;2.40;;;13.20;1.00;;;;;;5046227;28;20542;-81
2021/12/31 08:41:07;;;;;;;2.70;1.73;;;13.20;1.00;;;;;;5060537;28;20465;-81
2021/12/31 08:43:57;;;;;;;2.50;1.67;;;13.20;1.00;;;;;;5051874;28;20456;-83
2021/12/31 08:46:25;;;;;;;3.40;1.53;;;13.20;1.00;;;;;;5045001;28;20471;-82
2021/12/31 08:48:54;;;;;;;2.20;2.00;;;13.30;1.00;;;;;;5044627;28;20475;-82
2021/12/31 08:51:22;;;;;;;2.97;2.20;;;13.30;1.00;;;;;;5045167;28;20463;-82
2021/12/31 08:53:52;;;;;;;3.77;2.60;;;13.10;1.00;;;;;;5044973;28;20460;-83
2021/12/31 08:56:20;;;;;;;4.07;2.50;;;13.10;61.80;;;;;;5055306;28;20452;-83
2021/12/31 08:58:49;;;;;;;2.93;1.50;;;13.10;99.90;;;;;;5050625;28;20458;-82
2021/12/31 09:01:19;;;;;;;3.00;2.40;;;13.20;60.50;;;;;;5048503;28;20467;-82
2021/12/31 09:03:47;;;;;;;4.07;2.20;;;13.30;1.00;;;;;;5047603;28;20455;-81
2021/12/31 09:06:18;;;;;;;4.33;2.30;;;13.20;10.00;;;;;;5044661;28;20458;-82
2021/12/31 09:08:46;;;;;;;7.87;4.43;;;13.30;99.90;;;;;;5042364;28;20839;-83
2021/12/31 09:11:15;;;;;;;9.13;5.30;;;13.30;99.90;;;;;;5044096;28;20467;-82
2021/12/31 09:13:46;;;;;;;5.93;4.00;;;13.30;99.90;;;;;;5044005;28;20443;-82
2021/12/31 09:16:14;;;;;;;3.20;2.33;;;13.30;99.90;;;;;;5064446;28;20459;-83
2021/12/31 09:18:44;;;;;;;5.80;2.63;;;12.90;99.90;;;;;;5049742;28;20547;-83
2021/12/31 09:21:14;;;;;;;5.13;3.53;;;12.60;1.00;;;;;;5044192;28;20444;-82
2021/12/31 09:23:42;;;;;;;6.80;3.60;;;12.60;99.90;;;;;;5042897;28;20447;-83
2021/12/31 09:26:10;;;;;;;4.23;3.27;;;12.70;99.90;;;;;;5052439;28;20451;-81
2021/12/31 09:28:39;;;;;;;5.20;3.03;;;12.80;1.00;;;;;;5052653;28;21021;-81
2021/12/31 09:31:10;;;;;;;5.70;3.87;;;12.90;1.00;;;;;;5043242;28;20448;-82
2021/12/31 09:33:39;;;;;;;5.10;3.40;;;12.80;1.00;;;;;;5044084;28;20451;-82
2021/12/31 09:36:09;;;;;;;5.53;3.07;;;13.00;99.90;;;;;;5056404;28;20459;-81
2021/12/31 09:38:37;;;;;;;5.37;3.80;;;13.10;99.90;;;;;;5043642;28;20596;-82
2021/12/31 09:41:06;;;;;;;5.83;4.13;;;12.90;1.00;;;;;;5043905;28;20467;-82
2021/12/31 09:43:34;;;;;;;6.20;3.40;;;12.60;1.00;;;;;;5045703;28;20456;-83
2021/12/31 09:46:03;;;;;;;4.27;3.20;;;12.50;99.90;;;;;;5047366;28;20453;-82
2021/12/31 09:48:31;;;;;;;5.73;2.97;;;12.50;99.90;;;;;;5042141;28;20828;-82
2021/12/31 09:51:02;;;;;;;4.80;2.70;;;12.40;99.90;;;;;;5044613;28;21012;-82
2021/12/31 09:53:32;;;;;;;6.20;3.77;;;12.40;1.00;;;;;;5043717;28;20483;-83
2021/12/31 09:56:00;;;;;;;4.47;3.73;;;12.40;1.00;;;;;;5043584;28;20455;-83
2021/12/31 09:58:29;;;;;;;5.90;3.50;;;12.30;99.90;;;;;;5043422;28;20444;-80
2021/12/31 10:01:01;;;;;;;3.67;3.30;;;12.40;1.00;;;;;;5043835;28;20462;-81
2021/12/31 10:03:31;;;;;;;4.70;3.30;;;12.50;1.00;;;;;;5051155;28;20821;-83
2021/12/31 10:06:01;;;;;;;5.43;3.57;;;12.40;1.00;;;;;;5062096;28;20549;-84
2021/12/31 10:08:39;;;;;;;4.00;3.40;;;12.20;99.90;;;;;;5052812;28;20866;-84
2021/12/31 10:11:10;;;;;;;4.80;3.50;;;12.30;99.90;;;;;;5062897;28;21197;-84
2021/12/31 10:13:42;;;;;;;4.80;3.20;;;12.30;1.00;;;;;;5063614;28;20458;-84
2021/12/31 10:16:21;;;;;;;4.53;3.07;;;12.30;1.00;;;;;;5050212;28;20457;-83
2021/12/31 10:18:50;;;;;;;10.40;3.83;;;12.20;99.90;;;;;;5049000;28;20445;-83
2021/12/31 10:21:20;;;;;;;4.60;3.00;;;12.30;1.00;;;;;;5060135;28;20441;-83
2021/12/31 10:23:49;;;;;;;4.30;2.80;;;12.40;99.90;;;;;;5061684;28;21028;-84
2021/12/31 10:26:18;;;;;;;3.43;3.13;;;12.20;99.90;;;;;;5045579;28;20463;-83
2021/12/31 10:28:57;;;;;;;6.03;3.30;;;12.20;1.00;;;;;;5057135;28;20463;-84
2021/12/31 10:31:29;;;;;;;3.27;2.30;;;12.20;1.00;;;;;;5048381;28;20596;-84
2021/12/31 10:33:57;;;;;;;4.50;2.90;;;12.20;1.00;;;;;;5042972;28;20491;-83
2021/12/31 10:36:37;;;;;;;4.07;2.70;;;12.20;1.00;;;;;;5044938;28;20943;-83
2021/12/31 10:39:19;;;;;;;4.33;3.10;;;12.20;1.00;;;;;;5054210;28;20462;-83
2021/12/31 10:41:51;;;;;;;4.30;2.70;;;12.40;1.00;;;;;;5060980;28;20494;-83
2021/12/31 10:44:20;;;;;;;3.50;2.83;;;12.50;1.00;;;;;;5065233;28;20455;-85
2021/12/31 10:47:08;;;;;;;4.10;2.77;;;12.50;99.90;;;;;;5064262;28;20558;-83
2021/12/31 10:50:20;;;;;;;3.57;2.70;;;12.40;99.90;;;;;;5063151;28;20463;-83
2021/12/31 10:52:58;;;;;;;2.83;2.57;;;12.60;99.90;;;;;;5034741;28;20497;-83
2021/12/31 10:55:30;;;;;;;2.70;2.40;;;12.80;1.00;;;;;;5050835;28;20435;-84
2021/12/31 10:58:01;;;;;;;3.77;2.77;;;13.20;99.90;;;;;;5061194;28;20455;-83
2021/12/31 11:00:32;;;;;;;2.83;2.63;;;13.40;29.60;;;;;;5052153;28;20454;-84
2021/12/31 11:03:01;;;;;;;2.87;2.00;;;13.70;1.00;;;;;;5048955;28;20482;-84
2021/12/31 11:05:30;;;;;;;2.43;2.10;;;14.10;1.00;;;;;;5062882;28;20463;-84
2021/12/31 11:08:01;;;;;;;3.23;2.40;;;14.40;99.90;;;;;;5062830;28;20466;-84
2021/12/31 11:10:37;;;;;;;3.73;2.50;;;14.70;1.00;;;;;;5056930;28;20469;-85
2021/12/31 11:13:11;;;;;;;5.07;2.70;;;15.00;99.90;;;;;;5048709;28;20505;-84
2021/12/31 11:15:41;;;;;;;2.93;1.70;;;15.20;99.90;;;;;;5042474;28;20459;-83
2021/12/31 11:18:11;;;;;;;3.63;2.50;;;15.40;99.90;;;;;;5042869;28;20459;-83
2021/12/31 11:20:41;;;;;;;2.33;2.07;;;15.60;45.70;;;;;;5051805;28;20499;-85
2021/12/31 11:23:09;;;;;;;2.03;1.83;;;15.80;5.60;;;;;;5052872;28;20486;-84
2021/12/31 11:25:57;;;;;;;3.17;2.20;;;16.00;1.00;;;;;;5057799;28;20542;-84
2021/12/31 11:28:28;;;;;;;2.87;2.07;;;16.30;1.00;;;;;;5072980;28;20470;-84
2021/12/31 11:30:57;;;;;;;2.13;1.93;;;16.50;1.00;;;;;;5066361;28;20472;-84
2021/12/31 11:33:28;;;;;;;1.97;1.77;;;16.50;1.00;;;;;;5047860;28;20475;-84
2021/12/31 11:36:08;;;;;;;2.73;1.80;;;16.50;1.00;;;;;;5046874;28;20449;-83
2021/12/31 11:38:44;;;;;;;2.90;2.20;;;16.50;1.00;;;;;;5046731;28;20456;-85
2021/12/31 11:41:18;;;;;;;2.10;1.73;;;16.40;1.00;;;;;;5046855;28;20444;-84
2021/12/31 11:44:06;;;;;;;1.80;1.70;;;16.50;1.00;;;;;;5048867;28;20463;-84
2021/12/31 11:46:36;;;;;;;1.97;1.80;;;16.40;1.00;;;;;;5047081;28;21027;-85
2021/12/31 11:49:11;;;;;;;2.43;1.80;;;16.40;1.00;;;;;;5047075;28;20452;-85
2021/12/31 11:51:57;;;;;;;2.00;1.77;;;16.40;1.00;;;;;;5046670;28;20656;-83
2021/12/31 11:54:27;;;;;;;1.87;1.77;;;16.40;1.00;;;;;;5046778;28;20464;-85
2021/12/31 11:57:08;;;;;;;1.97;1.80;;;16.40;1.00;;;;;;5053074;28;20555;-84
2021/12/31 11:59:46;;;;;;;1.83;1.73;;;16.40;1.00;;;;;;5051364;28;20463;-84
2021/12/31 12:02:18;;;;;;;1.80;1.70;;;16.50;1.00;;;;;;5057843;28;20564;-85
2021/12/31 12:05:03;;;;;;;3.30;1.70;;;16.50;1.00;;;;;;5046643;28;20472;-84
2021/12/31 12:07:34;;;;;;;2.20;1.60;;;16.50;1.00;;;;;;5044518;28;20827;-83
2021/12/31 12:10:20;;;;;;;2.17;1.70;;;16.40;1.00;;;;;;5045547;28;20462;-84
2021/12/31 12:12:53;;;;;;;2.37;1.57;;;16.40;1.00;;;;;;5045770;28;20489;-84
2021/12/31 12:15:27;;;;;;;1.80;1.70;;;16.50;1.00;;;;;;5045114;28;20462;-83
2021/12/31 12:17:55;;;;;;;2.30;1.90;;;16.60;1.00;;;;;;5059907;28;20488;-84
2021/12/31 12:20:33;;;;;;;3.57;2.10;;;16.60;1.00;;;;;;5045633;28;20952;-83
2021/12/31 12:23:02;;;;;;;2.23;1.90;;;16.70;1.00;;;;;;5046488;28;21007;-83
2021/12/31 12:25:33;;;;;;;1.50;1.33;;;16.90;1.00;;;;;;5043833;28;20456;-84
2021/12/31 12:28:06;;;;;;;2.10;1.90;;;16.80;1.00;;;;;;5058204;28;20980;-84
2021/12/31 12:30:36;;;;;;;2.60;2.40;;;16.90;1.00;;;;;;5045965;28;20514;-84
2021/12/31 12:33:16;;;;;;;2.57;1.57;;;16.80;1.00;;;;;;5045236;28;20481;-83
2021/12/31 12:35:46;;;;;;;2.50;1.53;;;16.80;1.00;;;;;;5045848;28;20461;-83
2021/12/31 12:38:19;;;;;;;2.03;1.60;;;16.70;1.00;;;;;;5064854;28;20712;-84
2021/12/31 12:40:50;;;;;;;2.30;2.00;;;16.80;1.00;;;;;;5050156;28;20452;-84
2021/12/31 12:43:22;;;;;;;3.30;1.70;;;16.90;1.00;;;;;;5045078;28;20484;-84
2021/12/31 12:45:53;;;;;;;2.50;2.20;;;17.00;1.00;;;;;;5045030;28;20846;-84
2021/12/31 12:48:33;;;;;;;2.93;1.97;;;17.00;1.00;;;;;;5053923;28;20470;-83
2021/12/31 12:51:02;;;;;;;2.07;1.77;;;17.10;1.00;;;;;;5060353;28;20573;-84
2021/12/31 12:53:31;;;;;;;2.60;1.60;;;17.10;1.00;;;;;;5044952;28;20484;-83
2021/12/31 12:56:07;;;;;;;1.73;1.43;;;17.10;1.00;;;;;;5044720;28;20472;-84
2021/12/31 12:58:40;;;;;;;2.50;1.60;;;17.10;1.00;;;;;;5055940;28;20467;-84
2021/12/31 13:01:10;;;;;;;1.63;1.20;;;17.10;1.00;;;;;;5045532;28;20447;-84
2021/12/31 13:03:54;;;;;;;1.50;1.40;;;17.10;1.00;;;;;;5043961;28;20985;-84
2021/12/31 13:06:24;;;;;;;1.30;1.20;;;17.00;1.00;;;;;;5052301;28;20460;-84